createdAt,value
2022-12-14T00:01:23.329Z,11.30
2022-12-14T00:02:45.476Z,9.00
2022-12-14T00:04:07.748Z,10.83
2022-12-14T00:05:29.812Z,10.40
2022-12-14T00:06:52.521Z,10.30
2022-12-14T00:08:15.980Z,11.00
2022-12-14T00:09:38.031Z,11.10
2022-12-14T00:11:00.140Z,11.27
2022-12-14T00:12:22.221Z,10.03
2022-12-14T00:13:44.448Z,11.10
2022-12-14T00:15:11.307Z,10.77
2022-12-14T00:16:35.186Z,11.07
2022-12-14T00:17:57.311Z,11.00
2022-12-14T00:19:19.373Z,10.83
2022-12-14T00:20:41.638Z,10.50
2022-12-14T00:22:03.728Z,11.80
2022-12-14T00:23:25.792Z,10.90
2022-12-14T00:24:47.875Z,12.10
2022-12-14T00:26:36.213Z,11.53
2022-12-14T00:27:58.725Z,10.93
2022-12-14T00:29:20.789Z,11.43
2022-12-14T00:30:42.886Z,10.27
2022-12-14T00:32:05.942Z,9.90
2022-12-14T00:33:28.071Z,12.10
2022-12-14T00:34:50.177Z,10.57
2022-12-14T00:36:13.044Z,13.20
2022-12-14T00:37:35.691Z,11.40
2022-12-14T00:38:57.875Z,10.90
2022-12-14T00:40:19.937Z,11.63
2022-12-14T00:41:42.071Z,12.80
2022-12-14T00:43:04.334Z,12.97
2022-12-14T00:44:26.380Z,11.63
2022-12-14T00:45:48.690Z,10.73
2022-12-14T00:47:10.770Z,10.80
2022-12-14T00:48:33.515Z,10.50
2022-12-14T00:49:55.548Z,12.13
2022-12-14T00:51:18.399Z,11.67
2022-12-14T00:52:40.428Z,11.70
2022-12-14T00:54:02.438Z,11.20
2022-12-14T00:55:24.465Z,12.07
2022-12-14T00:56:46.487Z,11.27
2022-12-14T00:58:10.456Z,11.90
2022-12-14T00:59:32.477Z,10.70
2022-12-14T01:01:02.452Z,11.60
2022-12-14T01:02:24.635Z,12.30
2022-12-14T01:03:47.032Z,12.17
2022-12-14T01:05:09.480Z,11.57
2022-12-14T01:06:31.509Z,12.00
2022-12-14T01:07:53.511Z,11.40
2022-12-14T01:09:16.567Z,10.97
2022-12-14T01:10:40.387Z,12.63
2022-12-14T01:12:02.422Z,12.20
2022-12-14T01:13:24.706Z,11.40
2022-12-14T01:14:48.759Z,12.80
2022-12-14T01:16:14.935Z,11.97
2022-12-14T01:17:37.014Z,10.50
2022-12-14T01:19:00.303Z,12.37
2022-12-14T01:20:22.393Z,11.03
2022-12-14T01:21:44.689Z,12.60
2022-12-14T01:23:07.055Z,13.23
2022-12-14T01:24:29.417Z,12.67
2022-12-14T01:25:51.421Z,14.00
2022-12-14T01:27:13.582Z,12.33
2022-12-14T01:28:36.187Z,15.17
2022-12-14T01:29:58.214Z,12.17
2022-12-14T01:31:22.933Z,13.00
2022-12-14T01:32:46.060Z,13.70
2022-12-14T01:34:08.317Z,13.83
2022-12-14T01:35:30.343Z,12.90
2022-12-14T01:36:52.395Z,13.57
2022-12-14T01:38:14.405Z,12.67
2022-12-14T01:39:36.462Z,13.83
2022-12-14T01:41:00.076Z,12.77
2022-12-14T01:42:22.372Z,13.77
2022-12-14T01:43:50.188Z,13.70
2022-12-14T01:45:19.389Z,12.70
2022-12-14T01:46:50.060Z,12.53
2022-12-14T01:48:14.014Z,12.03
2022-12-14T01:49:49.045Z,11.80
2022-12-14T01:51:11.133Z,11.80
2022-12-14T01:52:40.859Z,14.73
2022-12-14T01:54:07.286Z,13.60
2022-12-14T01:55:56.354Z,11.47
2022-12-14T01:57:25.789Z,12.80
2022-12-14T01:58:47.841Z,12.23
2022-12-14T02:00:13.191Z,12.57
2022-12-14T02:01:35.705Z,11.73
2022-12-14T02:03:09.215Z,13.23
2022-12-14T02:04:33.600Z,12.70
2022-12-14T02:06:02.120Z,12.27
2022-12-14T02:07:26.471Z,13.03
2022-12-14T02:08:52.370Z,12.80
2022-12-14T02:10:14.440Z,12.30
2022-12-14T02:12:00.514Z,12.10
2022-12-14T02:13:38.705Z,11.13
2022-12-14T02:15:02.443Z,12.63
2022-12-14T02:16:24.607Z,13.13
2022-12-14T02:17:48.262Z,12.30
2022-12-14T02:19:10.311Z,12.03
2022-12-14T02:20:41.200Z,11.70
2022-12-14T02:22:33.382Z,11.27
2022-12-14T02:24:14.220Z,12.20
2022-12-14T02:25:54.736Z,11.17
2022-12-14T02:28:06.246Z,10.77
2022-12-14T02:29:49.965Z,11.17
2022-12-14T02:31:33.712Z,10.93
2022-12-14T02:33:06.422Z,11.00
2022-12-14T02:35:05.453Z,10.50
2022-12-14T02:36:37.533Z,11.00
2022-12-14T02:38:27.230Z,12.70
2022-12-14T02:40:13.120Z,10.97
2022-12-14T02:41:54.493Z,12.83
2022-12-14T02:43:29.100Z,12.97
2022-12-14T02:45:14.052Z,13.57
2022-12-14T02:46:45.066Z,12.63
2022-12-14T02:48:26.506Z,11.93
2022-12-14T02:50:02.475Z,14.10
2022-12-14T02:51:50.183Z,13.33
2022-12-14T02:53:42.291Z,10.10
2022-12-14T02:55:12.207Z,13.40
2022-12-14T02:56:40.026Z,12.97
2022-12-14T02:58:17.280Z,10.87
2022-12-14T02:59:40.681Z,10.67
2022-12-14T03:01:03.891Z,10.20
2022-12-14T03:02:27.127Z,10.53
2022-12-14T03:03:49.641Z,11.67
2022-12-14T03:05:11.939Z,10.27
2022-12-14T03:06:34.064Z,8.93
2022-12-14T03:07:59.012Z,9.77
2022-12-14T03:09:21.065Z,9.83
2022-12-14T03:10:57.342Z,10.30
2022-12-14T03:12:20.945Z,9.80
2022-12-14T03:13:51.647Z,9.40
2022-12-14T03:15:16.423Z,10.70
2022-12-14T03:16:46.404Z,8.80
2022-12-14T03:18:12.354Z,9.20
2022-12-14T03:19:52.626Z,9.20
2022-12-14T03:21:19.229Z,9.17
2022-12-14T03:22:52.032Z,9.33
2022-12-14T03:24:24.070Z,8.53
2022-12-14T03:26:13.060Z,8.43
2022-12-14T03:27:40.475Z,10.27
2022-12-14T03:29:12.917Z,9.43
2022-12-14T03:30:59.284Z,8.63
2022-12-14T03:32:24.071Z,8.03
2022-12-14T03:33:48.975Z,10.80
2022-12-14T03:35:23.541Z,9.30
2022-12-14T03:37:02.760Z,8.83
2022-12-14T03:38:33.605Z,9.83
2022-12-14T03:39:56.137Z,8.77
2022-12-14T03:41:48.990Z,8.50
2022-12-14T03:43:18.343Z,7.53
2022-12-14T03:44:54.834Z,8.00
2022-12-14T03:46:42.921Z,7.73
2022-12-14T03:48:58.664Z,8.43
2022-12-14T03:50:52.427Z,7.67
2022-12-14T03:52:26.638Z,8.17
2022-12-14T03:54:26.829Z,8.23
2022-12-14T03:55:54.807Z,7.60
2022-12-14T03:57:19.597Z,7.63
2022-12-14T03:59:00.447Z,9.70
2022-12-14T04:00:24.750Z,7.60
2022-12-14T04:01:49.891Z,7.63
2022-12-14T04:03:38.056Z,7.60
2022-12-14T04:05:07.880Z,8.10
2022-12-14T04:06:38.710Z,7.80
2022-12-14T04:08:06.502Z,7.70
2022-12-14T04:09:52.043Z,7.77
2022-12-14T04:11:35.297Z,8.67
2022-12-14T04:13:22.739Z,9.03
2022-12-14T04:15:09.971Z,8.07
2022-12-14T04:16:57.016Z,8.30
2022-12-14T04:18:44.088Z,10.30
2022-12-14T04:20:26.157Z,17.73
2022-12-14T04:21:58.560Z,11.30
2022-12-14T04:23:48.541Z,9.57
2022-12-14T04:25:38.082Z,8.07
2022-12-14T04:27:05.425Z,7.87
2022-12-14T04:28:53.395Z,8.07
2022-12-14T04:30:15.863Z,7.73
2022-12-14T04:31:42.478Z,8.20
2022-12-14T04:33:30.797Z,7.80
2022-12-14T04:35:19.154Z,7.33
2022-12-14T04:36:44.765Z,7.67
2022-12-14T04:38:20.338Z,7.87
2022-12-14T04:39:49.651Z,7.60
2022-12-14T04:41:15.343Z,6.00
2022-12-14T04:42:47.427Z,9.20
2022-12-14T04:44:32.318Z,7.63
2022-12-14T04:46:08.031Z,6.97
2022-12-14T04:47:34.954Z,7.23
2022-12-14T04:49:13.132Z,7.50
2022-12-14T04:50:42.583Z,6.50
2022-12-14T04:52:28.513Z,7.93
2022-12-14T04:54:07.071Z,8.63
2022-12-14T04:55:42.770Z,6.83
2022-12-14T04:57:23.958Z,6.37
2022-12-14T04:58:46.218Z,7.73
2022-12-14T05:00:10.166Z,6.90
2022-12-14T05:01:49.068Z,8.00
2022-12-14T05:03:21.981Z,7.03
2022-12-14T05:05:16.602Z,7.40
2022-12-14T05:07:10.122Z,7.93
2022-12-14T05:08:40.270Z,7.57
2022-12-14T05:10:16.553Z,8.27
2022-12-14T05:11:53.962Z,7.70
2022-12-14T05:13:26.293Z,9.57
2022-12-14T05:15:10.158Z,8.67
2022-12-14T05:16:32.418Z,8.10
2022-12-14T05:17:54.928Z,8.30
2022-12-14T05:19:17.144Z,7.20
2022-12-14T05:20:39.211Z,7.47
2022-12-14T05:22:06.318Z,8.17
2022-12-14T05:23:28.760Z,8.53
2022-12-14T05:24:51.263Z,8.93
2022-12-14T05:26:13.273Z,8.57
2022-12-14T05:27:35.324Z,7.90
2022-12-14T05:28:57.476Z,7.93
2022-12-14T05:30:19.705Z,8.13
2022-12-14T05:31:41.854Z,8.53
2022-12-14T05:33:19.883Z,8.17
2022-12-14T05:34:42.029Z,7.17
2022-12-14T05:36:04.226Z,7.83
2022-12-14T05:37:26.258Z,8.00
2022-12-14T05:38:48.335Z,8.70
2022-12-14T05:40:11.168Z,7.87
2022-12-14T05:41:33.182Z,8.47
2022-12-14T05:43:05.324Z,7.97
2022-12-14T05:44:27.377Z,7.50
2022-12-14T05:45:49.476Z,8.20
2022-12-14T05:47:11.725Z,8.20
2022-12-14T05:48:35.123Z,8.13
2022-12-14T05:49:57.240Z,8.60
2022-12-14T05:51:19.296Z,8.17
2022-12-14T05:52:41.368Z,8.50
2022-12-14T05:54:03.705Z,8.50
2022-12-14T05:55:25.754Z,8.77
2022-12-14T05:56:47.777Z,7.70
2022-12-14T05:58:09.812Z,8.03
2022-12-14T05:59:31.854Z,8.23
2022-12-14T06:00:53.886Z,6.97
2022-12-14T06:02:16.013Z,7.70
2022-12-14T06:03:38.429Z,7.93
2022-12-14T06:05:00.576Z,9.03
2022-12-14T06:06:22.642Z,8.40
2022-12-14T06:07:44.658Z,7.63
2022-12-14T06:09:08.534Z,9.00
2022-12-14T06:10:30.595Z,7.20
2022-12-14T06:11:52.687Z,7.67
2022-12-14T06:13:14.746Z,8.03
2022-12-14T06:14:36.778Z,8.50
2022-12-14T06:16:20.009Z,9.10
2022-12-14T06:17:46.181Z,8.20
2022-12-14T06:19:08.744Z,8.70
2022-12-14T06:20:30.750Z,8.43
2022-12-14T06:21:52.787Z,8.10
2022-12-14T06:23:14.808Z,7.10
2022-12-14T06:24:36.814Z,8.53
2022-12-14T06:25:58.838Z,7.77
2022-12-14T06:27:20.896Z,7.50
2022-12-14T06:28:43.103Z,8.30
2022-12-14T06:30:05.710Z,8.43
2022-12-14T06:31:30.451Z,8.90
2022-12-14T06:32:52.568Z,7.90
2022-12-14T06:34:15.116Z,8.10
2022-12-14T06:35:37.142Z,8.83
2022-12-14T06:36:59.244Z,9.50
2022-12-14T06:38:21.953Z,8.53
2022-12-14T06:39:45.060Z,8.33
2022-12-14T06:41:14.734Z,8.27
2022-12-14T06:42:37.080Z,8.47
2022-12-14T06:44:07.267Z,8.10
2022-12-14T06:45:29.724Z,8.90
2022-12-14T06:46:51.858Z,8.30
2022-12-14T06:48:13.917Z,8.93
2022-12-14T06:49:35.928Z,7.53
2022-12-14T06:51:02.596Z,8.10
2022-12-14T06:52:26.939Z,9.30
2022-12-14T06:53:57.358Z,9.10
2022-12-14T06:55:19.414Z,8.20
2022-12-14T06:56:43.016Z,9.17
2022-12-14T06:58:05.085Z,7.50
2022-12-14T06:59:27.253Z,10.13
2022-12-14T07:00:49.274Z,8.97
2022-12-14T07:02:11.395Z,8.30
2022-12-14T07:03:34.333Z,9.20
2022-12-14T07:04:56.438Z,8.43
2022-12-14T07:06:18.481Z,8.57
2022-12-14T07:07:41.551Z,8.50
2022-12-14T07:09:04.889Z,9.40
2022-12-14T07:10:26.965Z,8.60
2022-12-14T07:11:51.383Z,9.10
2022-12-14T07:13:13.456Z,8.47
2022-12-14T07:14:35.573Z,9.20
2022-12-14T07:15:59.146Z,7.97
2022-12-14T07:17:21.890Z,8.63
2022-12-14T07:18:44.032Z,9.03
2022-12-14T07:20:07.339Z,8.90
2022-12-14T07:21:29.413Z,9.00
2022-12-14T07:22:51.501Z,8.30
2022-12-14T07:24:13.956Z,10.83
2022-12-14T07:25:36.052Z,8.37
2022-12-14T07:26:58.145Z,8.80
2022-12-14T07:28:20.570Z,9.27
2022-12-14T07:29:42.617Z,7.67
2022-12-14T07:31:08.148Z,8.43
2022-12-14T07:32:30.423Z,9.17
2022-12-14T07:33:54.322Z,10.20
2022-12-14T07:35:17.008Z,9.77
2022-12-14T07:36:39.344Z,10.47
2022-12-14T07:38:01.380Z,9.30
2022-12-14T07:39:23.433Z,8.70
2022-12-14T07:40:45.479Z,8.83
2022-12-14T07:42:07.892Z,9.60
2022-12-14T07:43:30.421Z,9.77
2022-12-14T07:44:52.629Z,9.83
2022-12-14T07:46:20.026Z,8.23
2022-12-14T07:47:42.800Z,8.87
2022-12-14T07:49:04.868Z,9.83
2022-12-14T07:50:27.073Z,9.23
2022-12-14T07:51:49.144Z,8.83
2022-12-14T07:53:11.227Z,8.80
2022-12-14T07:54:33.388Z,10.27
2022-12-14T07:55:55.459Z,8.80
2022-12-14T07:57:17.521Z,8.87
2022-12-14T07:58:40.120Z,9.30
2022-12-14T08:00:02.327Z,8.47
2022-12-14T08:01:27.694Z,8.50
2022-12-14T08:02:49.937Z,8.67
2022-12-14T08:04:15.633Z,9.23
2022-12-14T08:05:40.578Z,9.93
2022-12-14T08:07:02.597Z,9.20
2022-12-14T08:08:24.642Z,8.70
2022-12-14T08:09:47.548Z,9.13
2022-12-14T08:11:11.045Z,8.20
2022-12-14T08:12:33.129Z,8.67
2022-12-14T08:13:55.113Z,9.10
2022-12-14T08:15:17.176Z,8.77
2022-12-14T08:16:39.512Z,8.60
2022-12-14T08:18:01.517Z,8.10
2022-12-14T08:19:23.509Z,9.23
2022-12-14T08:20:53.114Z,8.83
2022-12-14T08:22:15.489Z,9.07
2022-12-14T08:23:37.752Z,7.63
2022-12-14T08:24:59.781Z,8.67
2022-12-14T08:26:23.679Z,9.17
2022-12-14T08:27:46.268Z,8.90
2022-12-14T08:29:09.235Z,8.80
2022-12-14T08:30:31.228Z,8.60
2022-12-14T08:31:55.984Z,9.40
2022-12-14T08:33:19.260Z,10.00
2022-12-14T08:34:41.327Z,9.20
2022-12-14T08:36:15.281Z,8.57
2022-12-14T08:37:37.321Z,9.33
2022-12-14T08:39:01.355Z,9.30
2022-12-14T08:40:23.389Z,8.50
2022-12-14T08:41:46.254Z,9.37
2022-12-14T08:43:09.497Z,9.40
2022-12-14T08:44:31.522Z,9.27
2022-12-14T08:45:55.665Z,8.87
2022-12-14T08:47:17.681Z,8.53
2022-12-14T08:48:39.687Z,9.13
2022-12-14T08:50:01.661Z,8.10
2022-12-14T08:51:26.017Z,9.53
2022-12-14T08:52:48.530Z,9.63
2022-12-14T08:54:11.202Z,8.90
2022-12-14T08:55:38.232Z,9.67
2022-12-14T08:57:01.009Z,9.23
2022-12-14T08:58:23.025Z,7.87
2022-12-14T09:00:01.397Z,9.07
2022-12-14T09:01:32.675Z,8.70
2022-12-14T09:02:55.773Z,9.67
2022-12-14T09:04:17.821Z,8.90
2022-12-14T09:05:39.961Z,9.00
2022-12-14T09:07:02.314Z,8.77
2022-12-14T09:08:24.396Z,8.37
2022-12-14T09:09:46.420Z,9.13
2022-12-14T09:11:12.651Z,9.87
2022-12-14T09:12:36.143Z,9.20
2022-12-14T09:13:58.231Z,8.73
2022-12-14T09:15:20.319Z,9.80
2022-12-14T09:16:42.547Z,9.73
2022-12-14T09:18:05.269Z,9.43
2022-12-14T09:19:27.861Z,9.03
2022-12-14T09:20:49.978Z,8.90
2022-12-14T09:22:13.363Z,9.57
2022-12-14T09:23:36.610Z,9.20
2022-12-14T09:24:58.668Z,8.87
2022-12-14T09:26:22.818Z,9.00
2022-12-14T09:27:44.898Z,10.03
2022-12-14T09:29:07.018Z,9.87
2022-12-14T09:30:29.104Z,8.73
2022-12-14T09:31:51.169Z,8.63
2022-12-14T09:33:13.254Z,8.83
2022-12-14T09:34:35.349Z,9.23
2022-12-14T09:36:21.353Z,9.00
2022-12-14T09:37:43.451Z,9.17
2022-12-14T09:39:05.512Z,8.97
2022-12-14T09:40:31.324Z,9.27
2022-12-14T09:42:21.039Z,8.50
2022-12-14T09:43:48.000Z,9.03
2022-12-14T09:45:17.285Z,8.70
2022-12-14T09:46:52.042Z,9.60
2022-12-14T09:48:20.709Z,7.93
2022-12-14T09:49:56.940Z,8.93
2022-12-14T09:51:21.948Z,9.23
2022-12-14T09:52:56.742Z,8.70
2022-12-14T09:54:26.682Z,8.97
2022-12-14T09:55:51.468Z,9.40
2022-12-14T09:57:30.387Z,9.70
2022-12-14T09:58:57.934Z,8.60
2022-12-14T10:00:20.388Z,9.43
2022-12-14T10:02:28.980Z,9.47
2022-12-14T10:04:01.555Z,9.50
2022-12-14T10:05:53.698Z,8.90
2022-12-14T10:07:34.264Z,8.30
2022-12-14T10:09:05.638Z,8.40
2022-12-14T10:11:01.244Z,8.57
2022-12-14T10:13:05.582Z,8.47
2022-12-14T10:14:56.892Z,8.73
2022-12-14T10:16:51.761Z,8.10
2022-12-14T10:18:58.777Z,8.43
2022-12-14T10:20:23.458Z,8.33
2022-12-14T10:21:47.714Z,8.40
2022-12-14T10:23:18.176Z,8.60
2022-12-14T10:24:52.415Z,9.30
2022-12-14T10:26:18.810Z,7.93
2022-12-14T10:28:09.652Z,8.70
2022-12-14T10:29:39.696Z,9.03
2022-12-14T10:31:02.593Z,9.37
2022-12-14T10:32:39.481Z,9.50
2022-12-14T10:34:15.594Z,8.20
2022-12-14T10:35:55.062Z,10.00
2022-12-14T10:37:25.475Z,9.80
2022-12-14T10:38:53.507Z,9.90
2022-12-14T10:40:36.947Z,10.10
2022-12-14T10:42:04.468Z,8.20
2022-12-14T10:43:54.454Z,9.53
2022-12-14T10:45:40.326Z,9.13
2022-12-14T10:47:09.981Z,8.80
2022-12-14T10:48:45.242Z,9.40
2022-12-14T10:50:16.956Z,9.90
2022-12-14T10:52:05.484Z,9.10
2022-12-14T10:53:41.763Z,8.60
2022-12-14T10:55:29.710Z,9.13
2022-12-14T10:56:51.972Z,9.70
2022-12-14T10:58:14.095Z,8.90
2022-12-14T10:59:44.573Z,8.43
2022-12-14T11:01:15.649Z,9.37
2022-12-14T11:02:42.549Z,8.80
2022-12-14T11:04:07.137Z,10.20
2022-12-14T11:05:41.613Z,9.70
2022-12-14T11:07:15.851Z,9.10
2022-12-14T11:08:49.028Z,9.43
2022-12-14T11:10:21.343Z,10.07
2022-12-14T11:11:45.060Z,10.40
2022-12-14T11:13:17.197Z,9.73
2022-12-14T11:15:01.308Z,9.27
2022-12-14T11:16:36.584Z,9.73
2022-12-14T11:18:24.063Z,10.40
2022-12-14T11:20:08.659Z,9.00
2022-12-14T11:21:37.408Z,8.90
2022-12-14T11:23:09.078Z,10.23
2022-12-14T11:24:31.390Z,9.50
2022-12-14T11:26:03.757Z,9.60
2022-12-14T11:27:25.870Z,10.23
2022-12-14T11:28:53.232Z,9.10
2022-12-14T11:30:16.706Z,9.20
2022-12-14T11:31:44.125Z,8.97
2022-12-14T11:33:06.368Z,9.40
2022-12-14T11:34:39.032Z,9.33
2022-12-14T11:36:01.310Z,9.10
2022-12-14T11:37:31.512Z,8.07
2022-12-14T11:39:15.252Z,9.70
2022-12-14T11:40:38.087Z,9.00
2022-12-14T11:42:02.392Z,9.10
2022-12-14T11:43:32.204Z,8.83
2022-12-14T11:44:54.889Z,8.90
2022-12-14T11:46:18.407Z,10.00
2022-12-14T11:47:40.723Z,9.50
2022-12-14T11:49:02.776Z,8.87
2022-12-14T11:50:25.932Z,9.50
2022-12-14T11:52:06.122Z,9.13
2022-12-14T11:53:28.230Z,10.03
2022-12-14T11:54:54.245Z,9.13
2022-12-14T11:56:18.053Z,9.50
2022-12-14T11:58:00.084Z,9.80
2022-12-14T11:59:24.808Z,9.43
2022-12-14T12:00:52.491Z,9.23
2022-12-14T12:02:28.240Z,10.07
2022-12-14T12:03:53.645Z,9.37
2022-12-14T12:05:18.845Z,9.43
2022-12-14T12:06:42.198Z,8.53
2022-12-14T12:08:07.320Z,9.83
2022-12-14T12:09:31.387Z,9.87
2022-12-14T12:11:01.945Z,10.10
2022-12-14T12:12:24.270Z,9.33
2022-12-14T12:13:50.908Z,9.57
2022-12-14T12:15:19.706Z,9.00
2022-12-14T12:16:44.304Z,10.50
2022-12-14T12:18:29.545Z,8.50
2022-12-14T12:19:52.495Z,9.47
2022-12-14T12:21:30.040Z,10.53
2022-12-14T12:22:57.877Z,9.10
2022-12-14T12:24:36.761Z,9.27
2022-12-14T12:26:17.652Z,10.07
2022-12-14T12:27:40.036Z,9.80
2022-12-14T12:29:26.542Z,10.33
2022-12-14T12:30:53.133Z,8.97
2022-12-14T12:32:21.295Z,9.27
2022-12-14T12:34:15.062Z,9.17
2022-12-14T12:35:42.035Z,10.00
2022-12-14T12:37:28.453Z,10.17
2022-12-14T12:39:12.697Z,9.57
2022-12-14T12:40:41.838Z,8.87
2022-12-14T12:42:31.346Z,10.30
2022-12-14T12:43:54.412Z,10.07
2022-12-14T12:45:36.411Z,9.97
2022-12-14T12:47:25.564Z,7.97
2022-12-14T12:49:00.940Z,9.27
2022-12-14T12:50:26.774Z,9.17
2022-12-14T12:52:02.725Z,8.20
2022-12-14T12:53:28.338Z,9.40
2022-12-14T12:55:02.066Z,9.80
2022-12-14T12:56:48.209Z,9.10
2022-12-14T12:58:30.015Z,9.30
2022-12-14T12:59:55.678Z,9.53
2022-12-14T13:01:32.025Z,9.93
2022-12-14T13:03:18.967Z,8.90
2022-12-14T13:04:44.646Z,9.60
2022-12-14T13:06:21.840Z,9.73
2022-12-14T13:07:52.836Z,9.47
2022-12-14T13:09:32.947Z,9.13
2022-12-14T13:11:25.203Z,9.63
2022-12-14T13:12:48.302Z,10.30
2022-12-14T13:15:00.996Z,8.80
2022-12-14T13:16:31.771Z,9.00
2022-12-14T13:18:49.304Z,8.57
2022-12-14T13:20:31.770Z,8.97
2022-12-14T13:21:56.304Z,9.60
2022-12-14T13:25:34.483Z,8.20
2022-12-14T13:27:17.763Z,7.87
2022-12-14T13:28:48.980Z,9.07
2022-12-14T13:30:24.531Z,9.90
2022-12-14T13:32:26.280Z,9.50
2022-12-14T13:34:14.847Z,9.40
2022-12-14T13:35:44.455Z,9.50
2022-12-14T13:37:47.870Z,9.10
2022-12-14T13:39:45.383Z,9.67
2022-12-14T13:41:47.110Z,8.63
2022-12-14T13:43:27.120Z,8.40
2022-12-14T13:45:04.272Z,9.10
2022-12-14T13:46:29.367Z,9.20
2022-12-14T13:47:55.275Z,8.50
2022-12-14T13:49:21.812Z,9.23
2022-12-14T13:50:57.491Z,9.03
2022-12-14T13:52:41.425Z,9.40
2022-12-14T13:54:18.419Z,9.37
2022-12-14T13:56:01.298Z,8.80
2022-12-14T13:57:25.251Z,9.80
2022-12-14T13:58:49.486Z,9.20
2022-12-14T14:00:50.305Z,9.23
2022-12-14T14:02:27.789Z,8.43
2022-12-14T14:03:52.414Z,8.93
2022-12-14T14:05:18.794Z,7.87
2022-12-14T14:06:41.814Z,9.90
2022-12-14T14:08:33.285Z,9.33
2022-12-14T14:10:01.861Z,9.63
2022-12-14T14:11:41.950Z,9.90
2022-12-14T14:13:27.010Z,9.20
2022-12-14T14:15:01.093Z,10.07
2022-12-14T14:16:32.701Z,9.50
2022-12-14T14:18:01.652Z,9.37
2022-12-14T14:19:28.599Z,9.27
2022-12-14T14:21:12.165Z,8.57
2022-12-14T14:22:34.234Z,9.90
2022-12-14T14:24:16.814Z,10.77
2022-12-14T14:25:42.909Z,9.17
2022-12-14T14:27:08.435Z,9.60
2022-12-14T14:28:30.880Z,8.77
2022-12-14T14:29:54.562Z,10.17
2022-12-14T14:31:16.739Z,8.83
2022-12-14T14:32:42.054Z,10.23
2022-12-14T14:34:05.335Z,9.30
2022-12-14T14:35:45.495Z,9.13
2022-12-14T14:37:20.529Z,8.83
2022-12-14T14:38:42.960Z,9.80
2022-12-14T14:40:23.490Z,9.53
2022-12-14T14:41:52.564Z,9.70
2022-12-14T14:43:23.727Z,14.73
2022-12-14T14:44:55.462Z,11.63
2022-12-14T14:46:22.740Z,10.17
2022-12-14T14:47:55.937Z,8.93
2022-12-14T14:49:22.978Z,9.60
2022-12-14T14:50:48.441Z,9.00
2022-12-14T14:52:47.430Z,8.97
2022-12-14T14:55:06.578Z,8.90
2022-12-14T14:56:21.093Z,8.33
2022-12-14T14:57:57.135Z,9.80
2022-12-14T14:59:19.320Z,10.40
2022-12-14T15:01:12.121Z,8.30
2022-12-14T15:02:41.429Z,8.73
2022-12-14T15:04:23.415Z,9.73
2022-12-14T15:05:46.431Z,10.13
2022-12-14T15:07:15.800Z,9.83
2022-12-14T15:08:40.708Z,11.20
2022-12-14T15:10:24.615Z,11.07
2022-12-14T15:11:56.733Z,8.30
2022-12-14T15:13:29.823Z,10.17
2022-12-14T15:14:56.370Z,8.77
2022-12-14T15:16:24.231Z,10.50
2022-12-14T15:17:46.833Z,10.07
2022-12-14T15:19:25.018Z,9.63
2022-12-14T15:20:56.851Z,9.80
2022-12-14T15:22:25.093Z,9.53
2022-12-14T15:23:51.443Z,9.23
2022-12-14T15:25:23.215Z,9.70
2022-12-14T15:26:45.474Z,9.10
2022-12-14T15:28:08.157Z,9.60
2022-12-14T15:29:31.595Z,10.37
2022-12-14T15:30:55.121Z,9.30
2022-12-14T15:32:20.795Z,9.93
2022-12-14T15:33:47.778Z,8.97
2022-12-14T15:35:18.069Z,9.27
2022-12-14T15:36:42.533Z,9.10
2022-12-14T15:38:06.807Z,9.33
2022-12-14T15:39:38.237Z,9.90
2022-12-14T15:41:15.088Z,8.60
2022-12-14T15:42:55.742Z,8.80
2022-12-14T15:44:22.689Z,10.27
2022-12-14T15:45:48.550Z,10.37
2022-12-14T15:47:31.207Z,9.50
2022-12-14T15:49:03.606Z,9.90
2022-12-14T15:50:29.805Z,10.00
2022-12-14T15:51:52.277Z,9.10
2022-12-14T15:53:21.894Z,11.13
2022-12-14T15:54:44.894Z,10.00
2022-12-14T15:56:25.612Z,10.50
2022-12-14T15:57:47.690Z,10.00
2022-12-14T15:59:30.735Z,8.97
2022-12-14T16:00:55.162Z,10.63
2022-12-14T16:02:33.004Z,10.30
2022-12-14T16:03:59.284Z,10.33
2022-12-14T16:05:22.415Z,9.83
2022-12-14T16:06:53.412Z,10.20
2022-12-14T16:08:16.275Z,9.70
2022-12-14T16:09:53.170Z,10.77
2022-12-14T16:11:33.187Z,11.40
2022-12-14T16:13:01.628Z,9.77
2022-12-14T16:14:35.185Z,9.63
2022-12-14T16:15:59.952Z,9.93
2022-12-14T16:17:32.574Z,11.07
2022-12-14T16:19:08.630Z,10.27
2022-12-14T16:20:38.309Z,10.57
2022-12-14T16:22:10.048Z,9.90
2022-12-14T16:23:37.945Z,9.73
2022-12-14T16:25:16.779Z,9.37
2022-12-14T16:26:39.138Z,9.50
2022-12-14T16:28:25.743Z,10.27
2022-12-14T16:30:18.541Z,10.23
2022-12-14T16:31:40.940Z,10.93
2022-12-14T16:33:20.617Z,10.97
2022-12-14T16:34:48.017Z,10.90
2022-12-14T16:36:24.249Z,10.60
2022-12-14T16:37:49.003Z,9.13
2022-12-14T16:39:20.991Z,11.10
2022-12-14T16:40:54.195Z,10.40
2022-12-14T16:42:24.929Z,10.10
2022-12-14T16:43:58.982Z,10.77
2022-12-14T16:45:37.580Z,11.73
2022-12-14T16:47:28.596Z,10.70
2022-12-14T16:49:29.356Z,11.00
2022-12-14T16:50:58.110Z,11.50
2022-12-14T16:52:33.251Z,10.80
2022-12-14T16:53:58.510Z,11.40
2022-12-14T16:55:26.256Z,10.73
2022-12-14T16:56:52.775Z,12.17
2022-12-14T16:58:17.807Z,12.27
2022-12-14T16:59:41.961Z,12.03
2022-12-14T17:01:06.693Z,11.17
2022-12-14T17:02:34.185Z,12.60
2022-12-14T17:04:05.151Z,12.00
2022-12-14T17:05:40.806Z,12.53
2022-12-14T17:07:03.907Z,11.63
2022-12-14T17:08:26.339Z,13.77
2022-12-14T17:09:48.456Z,11.57
2022-12-14T17:11:12.790Z,11.93
2022-12-14T17:12:36.412Z,12.80
2022-12-14T17:13:58.470Z,12.83
2022-12-14T17:15:23.064Z,12.60
2022-12-14T17:16:52.978Z,14.20
2022-12-14T17:18:15.146Z,12.60
2022-12-14T17:19:39.538Z,12.73
2022-12-14T17:21:02.080Z,12.70
2022-12-14T17:22:30.087Z,13.37
2022-12-14T17:23:52.797Z,12.53
2022-12-14T17:25:15.163Z,12.90
2022-12-14T17:26:38.967Z,14.10
2022-12-14T17:28:01.523Z,16.67
2022-12-14T17:29:29.248Z,16.90
2022-12-14T17:30:56.214Z,17.23
2022-12-14T17:32:19.925Z,14.03
2022-12-14T17:33:43.952Z,13.93
2022-12-14T17:35:09.043Z,12.80
2022-12-14T17:36:32.197Z,13.87
2022-12-14T17:37:55.262Z,13.30
2022-12-14T17:39:18.636Z,13.10
2022-12-14T17:40:42.565Z,12.73
2022-12-14T17:42:06.414Z,13.00
2022-12-14T17:43:31.480Z,13.18
2022-12-14T17:45:00.654Z,13.20
2022-12-14T17:46:23.651Z,12.27
2022-12-14T17:47:45.832Z,10.80
2022-12-14T17:49:12.316Z,12.80
2022-12-14T17:50:34.834Z,11.27
2022-12-14T17:51:57.010Z,11.80
2022-12-14T17:53:26.325Z,12.03
2022-12-14T17:54:48.817Z,11.93
2022-12-14T17:56:12.067Z,12.50
2022-12-14T17:57:34.317Z,12.30
2022-12-14T17:58:56.468Z,14.10
2022-12-14T18:00:40.551Z,13.67
2022-12-14T18:02:03.386Z,15.30
2022-12-14T18:03:26.777Z,13.70
2022-12-14T18:04:50.628Z,13.00
2022-12-14T18:06:17.697Z,13.37
2022-12-14T18:07:39.917Z,13.50
2022-12-14T18:09:02.890Z,12.90
2022-12-14T18:10:26.026Z,13.97
2022-12-14T18:12:21.047Z,13.10
2022-12-14T18:13:35.062Z,12.37
2022-12-14T18:14:57.373Z,11.23
2022-12-14T18:16:21.444Z,11.67
2022-12-14T18:17:44.800Z,12.60
2022-12-14T18:19:11.947Z,11.40
2022-12-14T18:20:36.958Z,13.23
2022-12-14T18:22:01.481Z,12.27
2022-12-14T18:23:25.388Z,12.33
2022-12-14T18:24:49.136Z,12.63
2022-12-14T18:26:12.909Z,11.90
2022-12-14T18:27:36.308Z,12.77
2022-12-14T18:28:58.474Z,10.60
2022-12-14T18:30:21.039Z,12.00
2022-12-14T18:31:43.908Z,12.53
2022-12-14T18:33:16.672Z,12.63
2022-12-14T18:34:40.010Z,12.63
2022-12-14T18:36:02.172Z,11.30
2022-12-14T18:37:28.406Z,12.93
2022-12-14T18:38:55.909Z,12.30
2022-12-14T18:40:21.287Z,13.60
2022-12-14T18:41:43.604Z,12.17
2022-12-14T18:43:06.093Z,12.47
2022-12-14T18:44:28.280Z,13.37
2022-12-14T18:45:52.784Z,13.43
2022-12-14T18:47:40.539Z,13.40
2022-12-14T18:48:57.189Z,12.47
2022-12-14T18:50:27.212Z,12.73
2022-12-14T18:51:49.519Z,12.53
2022-12-14T18:53:17.088Z,13.97
2022-12-14T18:54:40.285Z,13.90
2022-12-14T18:56:03.763Z,13.97
2022-12-14T18:57:27.006Z,14.80
2022-12-14T18:58:49.529Z,14.67
2022-12-14T19:00:14.914Z,16.40
2022-12-14T19:01:39.616Z,14.57
2022-12-14T19:03:04.234Z,16.63
2022-12-14T19:04:26.588Z,19.03
2022-12-14T19:05:49.046Z,16.47
2022-12-14T19:07:11.244Z,18.07
2022-12-14T19:08:33.480Z,14.70
2022-12-14T19:09:56.261Z,15.30
2022-12-14T19:11:32.489Z,14.30
2022-12-14T19:12:55.478Z,14.30
2022-12-14T19:14:18.872Z,13.07
2022-12-14T19:15:41.232Z,12.23
2022-12-14T19:17:03.588Z,13.47
2022-12-14T19:18:25.777Z,12.13
2022-12-14T19:19:47.946Z,13.60
2022-12-14T19:21:10.515Z,12.80
2022-12-14T19:22:32.773Z,11.93
2022-12-14T19:23:56.831Z,13.00
2022-12-14T19:25:21.187Z,13.47
2022-12-14T19:26:43.439Z,12.70
2022-12-14T19:28:31.393Z,12.97
2022-12-14T19:29:58.030Z,12.63
2022-12-14T19:31:20.349Z,13.30
2022-12-14T19:32:43.520Z,11.73
2022-12-14T19:34:11.967Z,12.70